Pagrindinis puslapis
METAR-TAF:

METAR-TAF

Oro uostai :

Haines, Aliaska, Jungtinės Amerikos Valstijos

platuma: 59-15N, ilguma: 135-31W, Aukštis: 5 m

Dabartinis oras

Ataskaita buvo paskelbta 40 minutes, ne 09:54 UTC
Vėjas 5 kt iš Rytų/Pietryčių
Temperatūra 9°C
Drėgmė 76%
Slėgis 1014 hPa
Matomumas: 16.1 km
Mažai debesys ne aukštis 2200 ft
Su prošvaistėmis ne aukštis 10000 ft

METAR: PAHN 050954Z AUTO 11005KT 10SM FEW022 BKN100 09/05 A2995 RMK SLP143 T00890050 TSNO VIA AUTODIAL

Laikas: 02:34 (10:34 UTC)

Prognozė

Ataskaita buvo paskelbta 5 valandos ir 4 minutes, ne 05:30 UTC
Prognozė galioja nuo 05 metu 06 UTC su 06 metu 06 UTC
Vėjas 5 kt nuo kintamojo kryptimis
Matomumas: 10 km
Išsisklaidę debesys ne aukštis 8000 ft
Nuo 05 metu 2100 UTC
Vėjas 8 kt iš Pietryčių
Matomumas: 10 km
Giedras dangus

TAF: PAHN 050530Z 0506/0606 VRB05KT P6SM SCT080 FM052100 14008KT P6SM SKC AMD LTD TO CLD VIS AND WIND

Orai ataskaitas ir orų prognozės (METAR, TAF).

turimą stotys yra geltonos ir raudonos taškus žemėlapyje.

Perkelti pele per norėdami pamatyti stoties vardą.

Tada spustelėkite, norėdami matyti oro stebėjimo ir prognozės.

Norėdami pakeisti žemėlapį: spustelėkite ant žalios mygtukų su juodo kryžiaus žemyn,; žalią mygtuką su brūkšneliu, jei norite nutolinti; arba žalių rodyklių gretimoms žemėlapius.


METAR-TAF: